sensor_id;sensor_type;location;lat;lon;timestamp;pressure;altitude;pressure_sealevel;temperature;humidity
31011;BME280;26395;53.412;19.598;2023-02-18T00:09:40;98980.91;;;9.67;70.81
31011;BME280;26395;53.412;19.598;2023-02-18T00:25:14;98988.92;;;9.61;70.23
31011;BME280;26395;53.412;19.598;2023-02-18T00:40:31;98986.27;;;9.58;68.58
31011;BME280;26395;53.412;19.598;2023-02-18T00:55:45;98983.96;;;9.53;67.00
31011;BME280;26395;53.412;19.598;2023-02-18T01:10:54;98990.42;;;9.46;66.52
31011;BME280;26395;53.412;19.598;2023-02-18T01:25:58;99007.65;;;9.31;65.81
31011;BME280;26395;53.412;19.598;2023-02-18T01:41:02;99015.17;;;9.23;66.03
31011;BME280;26395;53.412;19.598;2023-02-18T01:56:08;99026.29;;;9.20;66.07
31011;BME280;26395;53.412;19.598;2023-02-18T02:11:16;99031.20;;;9.16;66.60
31011;BME280;26395;53.412;19.598;2023-02-18T02:41:51;99046.77;;;9.05;65.68
31011;BME280;26395;53.412;19.598;2023-02-18T03:12:35;99069.59;;;8.90;64.08
31011;BME280;26395;53.412;19.598;2023-02-18T03:27:44;99077.49;;;8.84;62.90
31011;BME280;26395;53.412;19.598;2023-02-18T03:42:52;99080.21;;;8.79;63.08
31011;BME280;26395;53.412;19.598;2023-02-18T03:57:56;99088.53;;;8.67;63.15
31011;BME280;26395;53.412;19.598;2023-02-18T04:12:59;99111.02;;;8.66;63.47
31011;BME280;26395;53.412;19.598;2023-02-18T04:28:04;99106.60;;;8.55;64.03
31011;BME280;26395;53.412;19.598;2023-02-18T04:43:08;99099.40;;;8.30;64.35
31011;BME280;26395;53.412;19.598;2023-02-18T04:58:11;99117.20;;;8.31;63.81
31011;BME280;26395;53.412;19.598;2023-02-18T05:13:14;99126.70;;;8.31;63.79
31011;BME280;26395;53.412;19.598;2023-02-18T05:28:18;99141.11;;;8.21;63.76
31011;BME280;26395;53.412;19.598;2023-02-18T05:43:21;99148.61;;;8.28;62.29
31011;BME280;26395;53.412;19.598;2023-02-18T05:58:25;99185.02;;;8.19;62.36
31011;BME280;26395;53.412;19.598;2023-02-18T06:13:28;99206.45;;;8.30;62.20
31011;BME280;26395;53.412;19.598;2023-02-18T06:28:32;99229.74;;;8.23;62.30
31011;BME280;26395;53.412;19.598;2023-02-18T06:43:36;99251.93;;;8.11;62.60
31011;BME280;26395;53.412;19.598;2023-02-18T06:58:39;99253.75;;;8.23;62.80
31011;BME280;26395;53.412;19.598;2023-02-18T07:13:42;99263.84;;;8.25;62.90
31011;BME280;26395;53.412;19.598;2023-02-18T07:28:46;99268.15;;;8.18;62.92
31011;BME280;26395;53.412;19.598;2023-02-18T07:43:49;99285.75;;;8.43;62.62
31011;BME280;26395;53.412;19.598;2023-02-18T07:58:53;99302.77;;;8.84;62.05
31011;BME280;26395;53.412;19.598;2023-02-18T08:13:57;99314.09;;;8.84;61.69
31011;BME280;26395;53.412;19.598;2023-02-18T08:29:01;99338.52;;;8.69;61.02
31011;BME280;26395;53.412;19.598;2023-02-18T08:44:05;99344.45;;;8.61;61.36
31011;BME280;26395;53.412;19.598;2023-02-18T08:59:28;99370.94;;;8.85;61.54
31011;BME280;26395;53.412;19.598;2023-02-18T09:15:27;99374.73;;;9.26;61.39
31011;BME280;26395;53.412;19.598;2023-02-18T09:30:31;99381.91;;;9.28;61.24
31011;BME280;26395;53.412;19.598;2023-02-18T09:45:34;99400.64;;;9.33;60.50
31011;BME280;26395;53.412;19.598;2023-02-18T10:00:41;99419.32;;;9.20;61.01
31011;BME280;26395;53.412;19.598;2023-02-18T10:15:46;99423.20;;;9.34;61.60
31011;BME280;26395;53.412;19.598;2023-02-18T10:30:56;99427.27;;;9.20;61.50
31011;BME280;26395;53.412;19.598;2023-02-18T10:46:06;99424.31;;;9.33;61.62
31011;BME280;26395;53.412;19.598;2023-02-18T11:01:18;99423.61;;;9.23;61.70
31011;BME280;26395;53.412;19.598;2023-02-18T11:16:36;99415.14;;;9.23;61.30
31011;BME280;26395;53.412;19.598;2023-02-18T11:31:45;99390.42;;;9.61;61.03
31011;BME280;26395;53.412;19.598;2023-02-18T11:46:58;99367.43;;;10.41;59.66
31011;BME280;26395;53.412;19.598;2023-02-18T12:02:05;99356.55;;;11.40;57.13
31011;BME280;26395;53.412;19.598;2023-02-18T12:18:08;99339.03;;;11.50;55.96
31011;BME280;26395;53.412;19.598;2023-02-18T12:33:51;99327.38;;;10.39;56.38
31011;BME280;26395;53.412;19.598;2023-02-18T13:20:27;99320.45;;;10.09;57.45
31011;BME280;26395;53.412;19.598;2023-02-18T13:35:53;99319.26;;;9.83;58.10
31011;BME280;26395;53.412;19.598;2023-02-18T13:51:04;99314.39;;;9.85;58.22
31011;BME280;26395;53.412;19.598;2023-02-18T14:21:33;99284.55;;;9.39;60.89
31011;BME280;26395;53.412;19.598;2023-02-18T14:51:49;99257.60;;;9.04;61.86
31011;BME280;26395;53.412;19.598;2023-02-18T15:06:59;99248.00;;;9.06;61.59
31011;BME280;26395;53.412;19.598;2023-02-18T15:22:04;99246.67;;;8.91;62.27
31011;BME280;26395;53.412;19.598;2023-02-18T15:37:11;99256.05;;;8.84;65.21
31011;BME280;26395;53.412;19.598;2023-02-18T15:52:22;99267.75;;;8.28;70.89
31011;BME280;26395;53.412;19.598;2023-02-18T16:07:35;99274.65;;;7.80;75.07
31011;BME280;26395;53.412;19.598;2023-02-18T16:22:46;99293.19;;;7.52;76.75
31011;BME280;26395;53.412;19.598;2023-02-18T16:37:53;99285.71;;;7.43;78.99
31011;BME280;26395;53.412;19.598;2023-02-18T16:52:59;99308.55;;;7.73;77.83
31011;BME280;26395;53.412;19.598;2023-02-18T17:08:23;99308.51;;;7.68;78.83
31011;BME280;26395;53.412;19.598;2023-02-18T17:23:26;99329.91;;;7.46;81.42
31011;BME280;26395;53.412;19.598;2023-02-18T17:38:30;99329.80;;;7.32;83.22
31011;BME280;26395;53.412;19.598;2023-02-18T17:53:35;99340.06;;;7.12;86.11
31011;BME280;26395;53.412;19.598;2023-02-18T18:08:38;99363.41;;;6.88;88.08
31011;BME280;26395;53.412;19.598;2023-02-18T18:23:41;99388.35;;;6.73;88.47
31011;BME280;26395;53.412;19.598;2023-02-18T18:38:45;99409.53;;;6.58;89.06
31011;BME280;26395;53.412;19.598;2023-02-18T18:53:49;99429.70;;;6.54;88.83
31011;BME280;26395;53.412;19.598;2023-02-18T19:08:53;99435.02;;;6.38;88.54
31011;BME280;26395;53.412;19.598;2023-02-18T19:23:57;99442.06;;;6.33;88.87
31011;BME280;26395;53.412;19.598;2023-02-18T19:39:01;99455.60;;;6.16;88.84
31011;BME280;26395;53.412;19.598;2023-02-18T19:54:05;99459.45;;;6.10;88.42
31011;BME280;26395;53.412;19.598;2023-02-18T20:09:08;99471.15;;;5.92;87.45
31011;BME280;26395;53.412;19.598;2023-02-18T20:24:12;99479.45;;;5.79;86.74
31011;BME280;26395;53.412;19.598;2023-02-18T20:39:16;99505.02;;;5.67;86.17
31011;BME280;26395;53.412;19.598;2023-02-18T20:54:24;99524.33;;;5.46;85.74
31011;BME280;26395;53.412;19.598;2023-02-18T21:09:29;99543.19;;;5.51;85.55
31011;BME280;26395;53.412;19.598;2023-02-18T21:24:33;99570.58;;;5.45;85.05
31011;BME280;26395;53.412;19.598;2023-02-18T21:39:37;99592.54;;;5.21;85.90
31011;BME280;26395;53.412;19.598;2023-02-18T21:54:43;99608.27;;;5.07;85.87
31011;BME280;26395;53.412;19.598;2023-02-18T22:09:48;99606.17;;;4.97;86.79
31011;BME280;26395;53.412;19.598;2023-02-18T22:24:52;99608.63;;;4.92;87.06
31011;BME280;26395;53.412;19.598;2023-02-18T22:39:56;99637.29;;;4.83;87.36
31011;BME280;26395;53.412;19.598;2023-02-18T22:54:59;99634.34;;;4.86;88.47
31011;BME280;26395;53.412;19.598;2023-02-18T23:10:03;99660.83;;;5.05;88.04
31011;BME280;26395;53.412;19.598;2023-02-18T23:25:07;99660.96;;;5.26;88.41
31011;BME280;26395;53.412;19.598;2023-02-18T23:40:10;99659.17;;;5.30;87.62
31011;BME280;26395;53.412;19.598;2023-02-18T23:55:16;99659.05;;;5.08;87.88
